Time;durP1;ratioP1;P1;durP2;ratioP2;P2;SDS_P1;SDS_P2;PMS_P1;PMS_P2;Temp;Humidity;BMP_temperature;BMP_pressure;BME280_temperature;BME280_humidity;BME280_pressure;Samples;Min_cycle;Max_cycle;Signal;HPM_P1;HPM_P2
2023/03/15 00:02:01;;;;;;;;;7.50;6.50;;;;;-147.17;100.00;-15917.19;5024374;28;51157;-47
2023/03/15 00:04:27;;;;;;;;;8.25;8.25;;;;;-147.17;100.00;-15917.19;5023627;28;51409;-48
2023/03/15 00:06:52;;;;;;;;;8.50;8.50;;;;;-147.17;100.00;-15917.19;5006740;28;51404;-47
2023/03/15 00:09:18;;;;;;;;;8.75;7.75;;;;;-147.17;100.00;-15917.19;5022310;28;51246;-48
2023/03/15 00:11:44;;;;;;;;;7.00;7.00;;;;;-147.17;100.00;-15917.19;5023203;28;52866;-49
2023/03/15 00:14:10;;;;;;;;;8.00;8.00;;;;;-147.17;100.00;-15917.19;5021884;28;51225;-49
2023/03/15 00:16:36;;;;;;;;;7.50;7.00;;;;;-147.17;100.00;-15917.19;5020114;28;51171;-47
2023/03/15 00:19:01;;;;;;;;;10.00;8.50;;;;;-147.17;100.00;-15917.19;5022962;28;51729;-48
2023/03/15 00:21:28;;;;;;;;;9.75;8.50;;;;;-147.17;100.00;-15917.19;5027079;28;51682;-46
2023/03/15 00:23:55;;;;;;;;;8.00;7.00;;;;;-147.17;100.00;-15917.19;5025179;28;51377;-47
2023/03/15 00:26:21;;;;;;;;;7.75;7.75;;;;;-147.17;100.00;-15917.19;5028206;28;51244;-48
2023/03/15 00:28:46;;;;;;;;;9.25;8.25;;;;;-147.17;100.00;-15917.19;4993324;28;51362;-51
2023/03/15 00:31:15;;;;;;;;;7.00;6.00;;;;;-147.17;100.00;-15917.19;5032254;28;52510;-46
2023/03/15 00:33:41;;;;;;;;;7.00;6.25;;;;;-147.17;100.00;-15917.19;5021436;28;53062;-47
2023/03/15 00:36:08;;;;;;;;;6.00;4.50;;;;;-147.17;100.00;-15917.19;5005317;28;51207;-48
2023/03/15 00:38:35;;;;;;;;;6.00;6.00;;;;;-147.17;100.00;-15917.19;5031368;28;51255;-48
2023/03/15 00:41:10;;;;;;;;;6.00;4.00;;;;;-147.17;100.00;-15917.19;5024646;28;52708;-47
2023/03/15 00:43:36;;;;;;;;;7.50;6.25;;;;;-147.17;100.00;-15917.19;5023285;28;52184;-47
2023/03/15 00:46:02;;;;;;;;;7.25;7.25;;;;;-147.17;100.00;-15917.19;5022648;28;51454;-48
2023/03/15 00:48:28;;;;;;;;;7.00;6.00;;;;;-147.17;100.00;-15917.19;5008768;28;51375;-50
2023/03/15 00:51:05;;;;;;;;;7.50;7.00;;;;;-147.17;100.00;-15917.19;5011529;28;53912;-49
2023/03/15 00:53:32;;;;;;;;;4.00;4.00;;;;;-147.17;100.00;-15917.19;5027276;28;51073;-47
2023/03/15 00:55:57;;;;;;;;;7.00;6.25;;;;;-147.17;100.00;-15917.19;5012665;28;50946;-48
2023/03/15 00:58:23;;;;;;;;;8.00;7.00;;;;;-147.17;100.00;-15917.19;5018447;28;52382;-50
2023/03/15 01:00:48;;;;;;;;;6.75;6.75;;;;;-147.17;100.00;-15917.19;5027902;28;51391;-50
2023/03/15 01:03:14;;;;;;;;;7.25;7.25;;;;;-147.17;100.00;-15917.19;5030757;28;51221;-47
2023/03/15 01:05:39;;;;;;;;;8.00;8.00;;;;;-147.17;100.00;-15917.19;5031839;28;51348;-46
2023/03/15 01:08:05;;;;;;;;;4.50;4.50;;;;;-147.17;100.00;-15917.19;5024808;28;50957;-46
2023/03/15 01:10:30;;;;;;;;;6.00;5.00;;;;;-147.17;100.00;-15917.19;5001643;28;53875;-46
2023/03/15 01:12:56;;;;;;;;;4.00;4.00;;;;;-147.17;100.00;-15917.19;5029222;28;51063;-46
2023/03/15 01:15:21;;;;;;;;;10.00;7.75;;;;;-147.17;100.00;-15917.19;5029428;28;51072;-48
2023/03/15 01:17:47;;;;;;;;;7.50;7.00;;;;;-147.17;100.00;-15917.19;5009877;28;51999;-48
2023/03/15 01:20:13;;;;;;;;;8.00;7.50;;;;;-147.17;100.00;-15917.19;5029452;28;52317;-46
2023/03/15 01:22:42;;;;;;;;;6.00;6.00;;;;;-147.17;100.00;-15917.19;5030534;28;51200;-46
2023/03/15 01:25:08;;;;;;;;;8.00;7.75;;;;;-147.17;100.00;-15917.19;5025394;28;52595;-48
2023/03/15 01:27:34;;;;;;;;;9.00;8.00;;;;;-147.17;100.00;-15917.19;5033437;28;51170;-45
2023/03/15 01:40:17;;;;;;;;;12.25;11.50;;;;;-147.17;100.00;-15917.19;5026526;28;50943;-46
2023/03/15 01:43:01;;;;;;;;;13.25;12.50;;;;;-147.17;100.00;-15917.19;5019608;28;52063;-46
2023/03/15 01:46:00;;;;;;;;;13.50;13.00;;;;;-147.17;100.00;-15917.19;5027805;28;51041;-49
2023/03/15 01:48:34;;;;;;;;;11.50;11.00;;;;;-147.17;100.00;-15917.19;5030600;28;51063;-48
2023/03/15 01:51:04;;;;;;;;;12.25;11.25;;;;;-147.17;100.00;-15917.19;5023648;28;51208;-47
2023/03/15 01:53:32;;;;;;;;;16.00;13.75;;;;;-147.17;100.00;-15917.19;4998736;28;51081;-46
2023/03/15 01:55:58;;;;;;;;;11.00;11.00;;;;;-147.17;100.00;-15917.19;5031619;28;51191;-49
2023/03/15 01:58:27;;;;;;;;;10.75;8.75;;;;;-147.17;100.00;-15917.19;5033965;28;50940;-48
2023/03/15 02:00:52;;;;;;;;;11.00;11.00;;;;;-147.17;100.00;-15917.19;5030593;28;51081;-48
2023/03/15 02:03:24;;;;;;;;;13.50;12.00;;;;;-147.17;100.00;-15917.19;5030139;28;51768;-48
2023/03/15 02:06:00;;;;;;;;;16.50;11.00;;;;;-147.17;100.00;-15917.19;5031920;28;51276;-52
2023/03/15 02:08:31;;;;;;;;;11.25;10.75;;;;;-147.17;100.00;-15917.19;5030642;28;51121;-48
2023/03/15 02:11:00;;;;;;;;;8.00;8.00;;;;;-147.17;100.00;-15917.19;5015444;28;52017;-50
2023/03/15 02:13:28;;;;;;;;;12.50;11.25;;;;;-147.17;100.00;-15917.19;5033830;28;51179;-47
2023/03/15 02:15:54;;;;;;;;;8.25;8.00;;;;;-147.17;100.00;-15917.19;5025015;28;51216;-47
2023/03/15 02:18:20;;;;;;;;;5.25;5.25;;;;;-147.17;100.00;-15917.19;5026747;28;51111;-46
2023/03/15 02:21:10;;;;;;;;;7.00;7.00;;;;;-147.17;100.00;-15917.19;5029142;28;51220;-48
2023/03/15 02:23:36;;;;;;;;;5.50;5.00;;;;;-147.17;100.00;-15917.19;5023300;28;51982;-47
2023/03/15 02:26:01;;;;;;;;;6.50;6.25;;;;;-147.17;100.00;-15917.19;5023268;28;51243;-50
2023/03/15 02:28:27;;;;;;;;;6.75;6.00;;;;;-147.17;100.00;-15917.19;5032942;28;51052;-47
2023/03/15 02:30:52;;;;;;;;;7.50;6.50;;;;;-147.17;100.00;-15917.19;5010809;28;51175;-46
2023/03/15 02:33:28;;;;;;;;;6.50;6.25;;;;;-147.17;100.00;-15917.19;5030532;28;51266;-47
2023/03/15 02:35:55;;;;;;;;;4.25;4.25;;;;;-147.17;100.00;-15917.19;5031827;28;51478;-46
2023/03/15 02:38:23;;;;;;;;;6.25;4.25;;;;;-147.17;100.00;-15917.19;5034499;28;51048;-47
2023/03/15 02:40:51;;;;;;;;;3.25;3.25;;;;;-147.17;100.00;-15917.19;5031265;28;51247;-48
2023/03/15 02:43:22;;;;;;;;;6.00;5.00;;;;;-147.17;100.00;-15917.19;5031337;28;52067;-47
2023/03/15 02:45:48;;;;;;;;;5.00;4.50;;;;;-147.17;100.00;-15917.19;5031525;28;51022;-48
2023/03/15 02:48:16;;;;;;;;;6.75;4.25;;;;;-147.17;100.00;-15917.19;5033369;28;51088;-47
2023/03/15 02:50:41;;;;;;;;;5.00;3.00;;;;;-147.17;100.00;-15917.19;5032592;28;50932;-46
2023/03/15 02:53:07;;;;;;;;;3.50;3.25;;;;;-147.17;100.00;-15917.19;5031448;28;52303;-47
2023/03/15 02:55:32;;;;;;;;;4.00;4.00;;;;;-147.17;100.00;-15917.19;5027797;28;51125;-46
2023/03/15 02:57:59;;;;;;;;;3.25;3.25;;;;;-147.17;100.00;-15917.19;5031251;28;50911;-50
2023/03/15 03:00:25;;;;;;;;;2.00;2.00;;;;;-147.17;100.00;-15917.19;5032189;28;52778;-49
2023/03/15 03:02:51;;;;;;;;;7.50;6.50;;;;;-147.17;100.00;-15917.19;5025288;28;51225;-48
2023/03/15 03:05:17;;;;;;;;;3.00;3.00;;;;;-147.17;100.00;-15917.19;5032181;28;51269;-49
2023/03/15 03:07:42;;;;;;;;;5.50;5.50;;;;;-147.17;100.00;-15917.19;5014959;28;51011;-46
2023/03/15 03:10:09;;;;;;;;;5.75;5.75;;;;;-147.17;100.00;-15917.19;5014752;28;51284;-47
2023/03/15 03:12:35;;;;;;;;;5.75;4.25;;;;;-147.17;100.00;-15917.19;5009667;28;51599;-47
2023/03/15 03:15:02;;;;;;;;;3.75;3.00;;;;;-147.17;100.00;-15917.19;5028781;28;51098;-48
2023/03/15 03:17:28;;;;;;;;;4.00;3.75;;;;;-147.17;100.00;-15917.19;5032094;28;50868;-49
2023/03/15 03:19:53;;;;;;;;;3.00;3.00;;;;;-147.17;100.00;-15917.19;5032178;28;51770;-48
2023/03/15 03:22:18;;;;;;;;;6.75;5.00;;;;;-147.17;100.00;-15917.19;5030952;28;52184;-48
2023/03/15 03:24:44;;;;;;;;;6.00;6.00;;;;;-147.17;100.00;-15917.19;5029377;28;51235;-47
2023/03/15 03:27:13;;;;;;;;;5.50;3.50;;;;;-147.17;100.00;-15917.19;5008159;28;51404;-49
2023/03/15 03:29:39;;;;;;;;;4.25;3.00;;;;;-147.17;100.00;-15917.19;5025342;28;51093;-49
2023/03/15 03:32:05;;;;;;;;;3.50;3.50;;;;;-147.17;100.00;-15917.19;5030947;28;51192;-49
2023/03/15 03:34:30;;;;;;;;;4.00;3.25;;;;;-147.17;100.00;-15917.19;5030182;28;51680;-47
2023/03/15 03:36:56;;;;;;;;;6.25;5.00;;;;;-147.17;100.00;-15917.19;5032004;28;51250;-48
2023/03/15 03:39:22;;;;;;;;;6.25;5.25;;;;;-147.17;100.00;-15917.19;5009103;28;51191;-49
2023/03/15 03:41:47;;;;;;;;;4.50;3.50;;;;;-147.17;100.00;-15917.19;5013380;28;51577;-50
2023/03/15 03:44:13;;;;;;;;;5.00;5.00;;;;;-147.17;100.00;-15917.19;5027673;28;51032;-50
2023/03/15 03:46:38;;;;;;;;;3.50;3.00;;;;;-147.17;100.00;-15917.19;5026582;28;51746;-48
2023/03/15 03:49:03;;;;;;;;;4.00;3.25;;;;;-147.17;100.00;-15917.19;5027821;28;51267;-48
2023/03/15 03:51:29;;;;;;;;;3.00;3.00;;;;;-147.17;100.00;-15917.19;5027155;28;58219;-48
2023/03/15 03:53:54;;;;;;;;;7.75;6.25;;;;;-147.17;100.00;-15917.19;5029676;28;50936;-51
2023/03/15 03:56:20;;;;;;;;;5.25;4.25;;;;;-147.17;100.00;-15917.19;5027309;28;51045;-48
2023/03/15 03:58:45;;;;;;;;;3.75;3.00;;;;;-147.17;100.00;-15917.19;5026983;28;51489;-47
2023/03/15 04:01:10;;;;;;;;;3.50;3.50;;;;;-147.17;100.00;-15917.19;5023956;28;51964;-48
2023/03/15 04:03:36;;;;;;;;;4.50;4.00;;;;;-147.17;100.00;-15917.19;5021636;28;51404;-48
2023/03/15 04:06:04;;;;;;;;;5.25;3.50;;;;;-147.17;100.00;-15917.19;5027836;28;51618;-46
2023/03/15 04:08:29;;;;;;;;;3.75;3.75;;;;;-147.17;100.00;-15917.19;5029348;28;51343;-46
2023/03/15 04:10:56;;;;;;;;;5.00;4.00;;;;;-147.17;100.00;-15917.19;5025823;28;51982;-48
2023/03/15 04:13:23;;;;;;;;;3.00;3.00;;;;;-147.17;100.00;-15917.19;5032037;28;52653;-49
2023/03/15 04:15:49;;;;;;;;;3.75;3.75;;;;;-147.17;100.00;-15917.19;5029424;28;51181;-47
2023/03/15 04:18:15;;;;;;;;;6.00;4.50;;;;;-147.17;100.00;-15917.19;4992278;28;51172;-49
2023/03/15 04:20:45;;;;;;;;;2.00;2.00;;;;;-147.17;100.00;-15917.19;5028681;28;51087;-46
2023/03/15 04:23:18;;;;;;;;;2.00;2.00;;;;;-147.17;100.00;-15917.19;5028643;28;51122;-47
2023/03/15 04:25:47;;;;;;;;;2.50;2.50;;;;;-147.17;100.00;-15917.19;5028157;28;51157;-48
2023/03/15 04:28:12;;;;;;;;;5.00;5.00;;;;;-147.17;100.00;-15917.19;5027327;28;50861;-47
2023/03/15 04:30:38;;;;;;;;;3.00;3.00;;;;;-147.17;100.00;-15917.19;5027659;28;52449;-47
2023/03/15 04:33:04;;;;;;;;;4.50;3.00;;;;;-147.17;100.00;-15917.19;5009005;28;51119;-48
2023/03/15 04:35:34;;;;;;;;;3.00;2.25;;;;;-147.17;100.00;-15917.19;5019958;28;51051;-52
2023/03/15 04:38:00;;;;;;;;;3.00;3.00;;;;;-147.17;100.00;-15917.19;5030015;28;51146;-47
2023/03/15 04:40:27;;;;;;;;;4.00;2.75;;;;;-147.17;100.00;-15917.19;5026000;28;51672;-48
2023/03/15 04:42:56;;;;;;;;;3.00;2.00;;;;;-147.17;100.00;-15917.19;5025193;28;51250;-51
2023/03/15 04:45:25;;;;;;;;;2.00;2.00;;;;;-147.17;100.00;-15917.19;5029976;28;51281;-49
2023/03/15 04:47:52;;;;;;;;;5.75;3.00;;;;;-147.17;100.00;-15917.19;5002082;28;51253;-49
2023/03/15 04:50:18;;;;;;;;;3.00;3.00;;;;;-147.17;100.00;-15917.19;5020049;28;52278;-47
2023/03/15 04:52:43;;;;;;;;;5.00;4.25;;;;;-147.17;100.00;-15917.19;5026119;28;51314;-47
2023/03/15 04:55:10;;;;;;;;;2.75;2.00;;;;;-147.17;100.00;-15917.19;5029763;28;51595;-48
2023/03/15 04:57:36;;;;;;;;;5.75;5.25;;;;;-147.17;100.00;-15917.19;5033043;28;51187;-47
2023/03/15 05:00:06;;;;;;;;;4.25;3.00;;;;;-147.17;100.00;-15917.19;5026159;28;51895;-47
2023/03/15 05:02:32;;;;;;;;;4.00;3.50;;;;;-147.17;100.00;-15917.19;5014616;28;51777;-49
2023/03/15 05:04:57;;;;;;;;;2.00;2.00;;;;;-147.17;100.00;-15917.19;5030819;28;51263;-49
2023/03/15 05:07:23;;;;;;;;;3.00;3.00;;;;;-147.17;100.00;-15917.19;5029424;28;51054;-46
2023/03/15 05:09:48;;;;;;;;;2.75;2.75;;;;;-147.17;100.00;-15917.19;5024795;28;52116;-50
2023/03/15 05:12:13;;;;;;;;;3.25;2.00;;;;;-147.17;100.00;-15917.19;5030884;28;52325;-48
2023/03/15 05:14:39;;;;;;;;;3.00;3.00;;;;;-147.17;100.00;-15917.19;5013332;28;51306;-51
2023/03/15 05:17:04;;;;;;;;;3.00;3.00;;;;;-147.17;100.00;-15917.19;5028575;28;51153;-51
2023/03/15 05:19:33;;;;;;;;;3.00;2.00;;;;;-147.17;100.00;-15917.19;5015554;28;53877;-49
2023/03/15 05:22:02;;;;;;;;;3.00;2.75;;;;;-147.17;100.00;-15917.19;5029925;28;51369;-51
2023/03/15 05:24:28;;;;;;;;;2.50;2.50;;;;;-147.17;100.00;-15917.19;5010014;28;51086;-50
2023/03/15 05:26:54;;;;;;;;;5.00;3.75;;;;;-147.17;100.00;-15917.19;5031177;28;51291;-48
2023/03/15 05:29:20;;;;;;;;;1.00;1.00;;;;;-147.17;100.00;-15917.19;5032451;28;51025;-51
2023/03/15 05:31:46;;;;;;;;;3.00;2.00;;;;;-147.17;100.00;-15917.19;5027853;28;51310;-50
2023/03/15 05:34:12;;;;;;;;;2.75;2.75;;;;;-147.17;100.00;-15917.19;5030306;28;51052;-48
2023/03/15 05:36:37;;;;;;;;;3.75;3.00;;;;;-147.17;100.00;-15917.19;5033296;28;51167;-50
2023/03/15 05:39:03;;;;;;;;;3.00;2.00;;;;;-147.17;100.00;-15917.19;5033975;28;51230;-47
2023/03/15 05:41:29;;;;;;;;;2.00;2.00;;;;;-147.17;100.00;-15917.19;5011621;28;51185;-48
2023/03/15 05:43:54;;;;;;;;;3.00;2.00;;;;;-147.17;100.00;-15917.19;5032599;28;51397;-48
2023/03/15 05:46:21;;;;;;;;;1.75;1.75;;;;;-147.17;100.00;-15917.19;5032208;28;51064;-47
2023/03/15 05:48:47;;;;;;;;;24.25;21.25;;;;;-147.17;100.00;-15917.19;5043706;28;52054;-48
2023/03/15 05:51:12;;;;;;;;;2.75;2.75;;;;;-147.17;100.00;-15917.19;5011851;28;51409;-48
2023/03/15 05:53:38;;;;;;;;;3.00;1.00;;;;;-147.17;100.00;-15917.19;5034959;28;51736;-46
2023/03/15 05:56:03;;;;;;;;;2.50;2.50;;;;;-147.17;100.00;-15917.19;5030297;28;50900;-47
2023/03/15 05:58:28;;;;;;;;;1.50;1.50;;;;;-147.17;100.00;-15917.19;5011192;28;51257;-48
2023/03/15 06:00:54;;;;;;;;;3.00;2.25;;;;;-147.17;100.00;-15917.19;5033173;28;51023;-47
2023/03/15 06:03:19;;;;;;;;;6.25;2.50;;;;;-147.17;100.00;-15917.19;5015570;28;51091;-47
2023/03/15 06:05:45;;;;;;;;;2.50;2.50;;;;;-147.17;100.00;-15917.19;5032056;28;50900;-47
2023/03/15 06:08:10;;;;;;;;;3.00;2.25;;;;;-147.17;100.00;-15917.19;5012492;28;53075;-46
2023/03/15 06:10:36;;;;;;;;;1.00;1.00;;;;;-147.17;100.00;-15917.19;5024664;28;51115;-48
2023/03/15 06:13:01;;;;;;;;;2.75;2.00;;;;;-147.17;100.00;-15917.19;5033649;28;51097;-47
2023/03/15 06:15:27;;;;;;;;;5.50;4.50;;;;;-147.17;100.00;-15917.19;5033656;28;51034;-48
2023/03/15 06:17:52;;;;;;;;;2.50;2.50;;;;;-147.17;100.00;-15917.19;5029055;28;51182;-46
2023/03/15 06:20:17;;;;;;;;;1.75;1.75;;;;;-147.17;100.00;-15917.19;5014922;28;51129;-47
2023/03/15 06:22:43;;;;;;;;;3.00;2.75;;;;;-147.17;100.00;-15917.19;5016837;28;51173;-48
2023/03/15 06:25:09;;;;;;;;;2.00;2.00;;;;;-147.17;100.00;-15917.19;5034320;28;51096;-48
2023/03/15 06:27:35;;;;;;;;;22.50;22.25;;;;;-147.17;100.00;-15917.19;5013584;28;53940;-47
2023/03/15 06:30:01;;;;;;;;;8.25;7.00;;;;;-147.17;100.00;-15917.19;5031756;28;51146;-46
2023/03/15 06:32:26;;;;;;;;;3.00;3.00;;;;;-147.17;100.00;-15917.19;5031183;28;51342;-48
2023/03/15 06:34:52;;;;;;;;;12.00;8.00;;;;;-147.17;100.00;-15917.19;5033065;28;51295;-50
2023/03/15 06:37:17;;;;;;;;;5.00;5.00;;;;;-147.17;100.00;-15917.19;5030009;28;51557;-48
2023/03/15 06:39:43;;;;;;;;;17.75;14.25;;;;;-147.17;100.00;-15917.19;5024183;28;51232;-48
2023/03/15 06:42:11;;;;;;;;;7.75;6.75;;;;;-147.17;100.00;-15917.19;5026159;28;51175;-47
2023/03/15 06:44:38;;;;;;;;;5.00;4.25;;;;;-147.17;100.00;-15917.19;5031546;28;51008;-46
2023/03/15 06:47:03;;;;;;;;;8.00;6.00;;;;;-147.17;100.00;-15917.19;5026860;28;52654;-48
2023/03/15 06:49:29;;;;;;;;;5.25;5.00;;;;;-147.17;100.00;-15917.19;5029207;28;51113;-47
2023/03/15 06:51:55;;;;;;;;;4.00;3.00;;;;;-147.17;100.00;-15917.19;5014595;28;51191;-46
2023/03/15 06:54:21;;;;;;;;;6.00;3.00;;;;;-147.17;100.00;-15917.19;5030575;28;51448;-46
2023/03/15 06:56:47;;;;;;;;;6.25;4.25;;;;;-147.17;100.00;-15917.19;5028582;28;52390;-46
2023/03/15 06:59:12;;;;;;;;;4.25;4.25;;;;;-147.17;100.00;-15917.19;5023354;28;51124;-46
2023/03/15 07:01:38;;;;;;;;;8.00;7.75;;;;;-147.17;100.00;-15917.19;5010676;28;51000;-48
2023/03/15 07:04:03;;;;;;;;;5.00;5.00;;;;;-147.17;100.00;-15917.19;5013210;28;51352;-49
2023/03/15 07:06:29;;;;;;;;;4.00;3.75;;;;;-147.17;100.00;-15917.19;5012050;28;52856;-51
2023/03/15 07:08:54;;;;;;;;;5.00;4.50;;;;;-147.17;100.00;-15917.19;5029845;28;50919;-48
2023/03/15 07:11:20;;;;;;;;;4.00;4.00;;;;;-147.17;100.00;-15917.19;5021994;28;51033;-48
2023/03/15 07:13:45;;;;;;;;;2.50;2.50;;;;;-147.17;100.00;-15917.19;5026082;28;51428;-47
2023/03/15 07:16:11;;;;;;;;;4.50;4.00;;;;;-147.17;100.00;-15917.19;5007447;28;51887;-49
2023/03/15 07:18:36;;;;;;;;;4.00;4.00;;;;;-147.17;100.00;-15917.19;5010939;28;51184;-46
2023/03/15 07:21:03;;;;;;;;;3.75;3.75;;;;;-147.17;100.00;-15917.19;5026561;28;51000;-46
2023/03/15 07:23:30;;;;;;;;;6.75;4.50;;;;;-147.17;100.00;-15917.19;5032111;28;51307;-46
2023/03/15 07:25:55;;;;;;;;;4.50;4.00;;;;;-147.17;100.00;-15917.19;5029878;28;52021;-46
2023/03/15 07:28:23;;;;;;;;;8.00;6.25;;;;;-147.17;100.00;-15917.19;5025387;28;51425;-46
2023/03/15 07:31:00;;;;;;;;;4.00;4.00;;;;;-147.17;100.00;-15917.19;5000521;28;51360;-46
2023/03/15 07:33:28;;;;;;;;;3.00;3.00;;;;;-147.17;100.00;-15917.19;5010369;28;51438;-50
2023/03/15 07:35:54;;;;;;;;;3.25;3.25;;;;;-147.17;100.00;-15917.19;5026589;28;51049;-49
2023/03/15 07:38:24;;;;;;;;;6.25;4.25;;;;;-147.17;100.00;-15917.19;5030359;28;51098;-47
2023/03/15 07:40:50;;;;;;;;;5.00;4.00;;;;;-147.17;100.00;-15917.19;5039428;28;51275;-49
2023/03/15 07:43:16;;;;;;;;;4.75;4.75;;;;;-147.17;100.00;-15917.19;5030864;28;51396;-46
2023/03/15 07:45:42;;;;;;;;;6.00;6.00;;;;;-147.17;100.00;-15917.19;5031655;28;53299;-47
2023/03/15 07:48:07;;;;;;;;;5.33;5.00;;;;;-147.17;100.00;-15917.19;5029144;28;50991;-49
2023/03/15 07:50:33;;;;;;;;;4.33;4.33;;;;;-147.17;100.00;-15917.19;5017377;28;51180;-47
2023/03/15 07:53:02;;;;;;;;;4.00;4.00;;;;;-147.17;100.00;-15917.19;5032334;28;51149;-47
2023/03/15 07:55:27;;;;;;;;;5.67;4.67;;;;;-147.17;100.00;-15917.19;5031631;28;52042;-48
2023/03/15 07:57:52;;;;;;;;;5.00;5.00;;;;;-147.17;100.00;-15917.19;5012003;28;51159;-50
2023/03/15 08:00:18;;;;;;;;;4.67;4.67;;;;;-147.17;100.00;-15915.72;5024495;28;51116;-47
2023/03/15 08:02:44;;;;;;;;;7.33;6.00;;;;;-147.17;100.00;-14181.31;4996376;28;51163;-52
2023/03/15 08:05:10;;;;;;;;;7.00;5.33;;;;;-147.17;100.00;-13933.50;5024778;28;51774;-46
2023/03/15 08:07:35;;;;;;;;;4.00;4.00;;;;;-147.17;100.00;-12941.97;5023394;28;50988;-50
2023/03/15 08:10:04;;;;;;;;;5.00;4.33;;;;;-147.17;100.00;-12446.13;5031210;28;51276;-50
2023/03/15 08:12:29;;;;;;;;;5.00;5.00;;;;;-147.17;100.00;-9221.53;5002110;28;51277;-47
2023/03/15 08:14:55;;;;;;;;;8.33;6.33;;;;;-147.17;100.00;-9469.69;5026010;28;51310;-48
2023/03/15 08:17:20;;;;;;;;;6.00;6.00;;;;;-147.17;100.00;-7980.59;5030971;28;51014;-46
2023/03/15 08:19:45;;;;;;;;;5.00;5.00;;;;;-147.17;100.00;-6987.56;5031489;28;50988;-48
2023/03/15 08:22:11;;;;;;;;;6.67;6.67;;;;;-147.17;100.00;-5249.09;5017879;28;51060;-47
2023/03/15 08:24:36;;;;;;;;;6.00;6.00;;;;;-147.17;100.00;-5745.88;5031126;28;52814;-49
2023/03/15 08:27:03;;;;;;;;;9.33;7.67;;;;;-147.17;100.00;-5745.88;5012968;28;51239;-47
2023/03/15 08:29:29;;;;;;;;;6.00;6.00;;;;;-147.17;100.00;-3012.78;5031699;28;51124;-48
2023/03/15 08:31:55;;;;;;;;;6.67;6.00;;;;;-147.17;100.00;-1521.19;5038016;28;51023;-50
2023/03/15 08:34:20;;;;;;;;;5.67;4.00;;;;;-147.17;100.00;468.50;5037554;28;51680;-49
2023/03/15 08:36:46;;;;;;;;;5.00;5.00;;;;;-147.17;100.00;3206.00;5017116;28;51238;-50
2023/03/15 08:39:13;;;;;;;;;6.67;6.33;;;;;-147.17;100.00;5447.22;5023332;28;51384;-48
2023/03/15 08:41:38;;;;;;;;;7.33;5.33;;;;;-147.17;100.00;5945.44;5036961;28;51220;-52
2023/03/15 08:44:04;;;;;;;;;4.00;4.00;;;;;-147.17;100.00;6443.75;5034759;28;52245;-49
2023/03/15 08:46:29;;;;;;;;;7.00;6.00;;;;;-147.17;100.00;6194.59;5035770;28;51169;-51
2023/03/15 08:48:55;;;;;;;;;6.00;5.00;;;;;-147.17;100.00;9933.56;5025727;28;51641;-53
2023/03/15 08:51:20;;;;;;;;;4.67;4.67;;;;;-147.17;100.00;13176.94;5020142;28;51386;-49
2023/03/15 08:53:46;;;;;;;;;6.00;6.00;;;;;-147.17;100.00;15423.94;5020111;28;51006;-51
2023/03/15 08:56:11;;;;;;;;;6.67;6.33;;;;;-147.17;100.00;16922.66;5034800;28;51061;-51
2023/03/15 08:58:36;;;;;;;;;8.00;7.00;;;;;-147.17;100.00;16922.66;5037071;28;51058;-48
2023/03/15 09:01:03;;;;;;;;;5.67;5.67;;;;;-147.17;100.00;17672.25;5034812;28;51398;-49
2023/03/15 09:03:31;;;;;;;;;8.33;7.33;;;;;-147.17;100.00;14674.81;5014455;28;51999;-51
2023/03/15 09:05:58;;;;;;;;;5.67;5.00;;;;;-147.17;100.00;12927.34;5038023;28;51113;-48
2023/03/15 09:08:25;;;;;;;;;6.00;5.00;;;;;-147.17;100.00;14175.44;5019396;28;52705;-50
2023/03/15 09:10:57;;;;;;;;;2.00;1.67;;;;;-147.17;100.00;12927.34;5019753;28;51297;-48
2023/03/15 09:13:23;;;;;;;;;5.33;5.00;;;;;-147.17;100.00;14924.50;5016790;28;52936;-48
2023/03/15 09:15:53;;;;;;;;;5.00;4.00;;;;;-147.17;100.00;14674.81;5019285;28;51267;-49
2023/03/15 09:18:19;;;;;;;;;6.67;6.67;;;;;-147.17;100.00;13676.16;5032991;28;51339;-47
2023/03/15 09:20:45;;;;;;;;;3.67;3.67;;;;;-147.17;100.00;14425.13;5037945;28;51083;-48
2023/03/15 09:23:11;;;;;;;;;6.00;4.33;;;;;-147.17;100.00;16423.03;5041648;28;51828;-46
2023/03/15 09:25:37;;;;;;;;;5.33;4.67;;;;;-147.17;100.00;20672.00;5037829;28;51089;-47
2023/03/15 09:28:06;;;;;;;;;4.00;4.00;;;;;-147.17;100.00;18421.97;5020769;28;51198;-48
2023/03/15 09:30:32;;;;;;;;;3.67;3.67;;;;;-147.17;100.00;18172.06;5031256;28;51120;-48
2023/03/15 09:32:58;;;;;;;;;3.00;3.00;;;;;-147.17;100.00;18921.88;5040938;28;51377;-46
2023/03/15 09:35:23;;;;;;;;;2.00;2.00;;;;;-147.17;100.00;22172.75;5032143;28;51047;-48
2023/03/15 09:37:49;;;;;;;;;2.33;2.00;;;;;-147.17;100.00;22845.16;5038869;28;51180;-48
2023/03/15 09:40:18;;;;;;;;;5.00;5.00;;;;;-147.17;100.00;23885.25;5038774;28;50985;-49
2023/03/15 09:43:05;;;;;;;;;4.00;4.00;;;;;-147.17;100.00;20672.00;5031833;28;51114;-48
2023/03/15 09:46:14;;;;;;;;;4.33;3.33;;;;;-147.17;100.00;24581.41;5028226;28;51141;-48
2023/03/15 09:49:06;;;;;;;;;5.00;4.67;;;;;-147.17;100.00;27379.03;5033324;28;51095;-48
2023/03/15 09:51:47;;;;;;;;;6.00;4.67;;;;;-147.17;100.00;25029.28;5034770;28;51046;-49
2023/03/15 09:54:19;;;;;;;;;4.33;4.33;;;;;-147.17;100.00;22172.75;5030313;28;51466;-49
2023/03/15 09:56:55;;;;;;;;;4.33;4.00;;;;;-147.17;100.00;19171.84;5032106;28;51072;-48
2023/03/15 09:59:28;;;;;;;;;6.00;4.67;;;;;-147.17;100.00;19421.84;5033794;28;51070;-49
2023/03/15 10:01:56;;;;;;;;;7.00;5.33;;;;;-147.17;100.00;18172.06;5034060;28;51086;-46
2023/03/15 10:04:28;;;;;;;;;4.00;4.00;;;;;-147.17;100.00;18172.06;5014736;28;52065;-50
2023/03/15 10:06:59;;;;;;;;;5.00;5.00;;;;;-147.17;100.00;15174.22;5033207;28;50972;-49
2023/03/15 10:09:31;;;;;;;;;10.75;9.75;;;;;-147.17;100.00;15174.22;5033623;28;51011;-47
2023/03/15 10:12:15;;;;;;;;;3.00;3.00;;;;;-147.17;100.00;15174.22;5033273;28;51105;-49
2023/03/15 10:14:59;;;;;;;;;4.00;4.00;;;;;-147.17;100.00;15673.69;5003495;28;51377;-49
2023/03/15 10:17:43;;;;;;;;;4.67;3.67;;;;;-147.17;100.00;13676.16;5033566;28;51003;-49
2023/03/15 10:20:17;;;;;;;;;4.00;3.33;;;;;-147.17;100.00;11679.66;5015264;28;51127;-46
2023/03/15 10:23:09;;;;;;;;;6.33;5.00;;;;;-147.17;100.00;11679.66;5044432;28;51020;-48
2023/03/15 10:25:37;;;;;;;;;3.33;2.67;;;;;-147.17;100.00;11430.19;5008494;28;51256;-50
2023/03/15 10:28:17;;;;;;;;;2.33;2.33;;;;;-147.17;100.00;10182.97;5033393;28;51126;-50
2023/03/15 10:30:48;;;;;;;;;5.00;4.00;;;;;-147.17;100.00;12677.78;5014470;28;51188;-49
2023/03/15 10:33:28;;;;;;;;;3.33;3.00;;;;;-147.17;100.00;10931.25;5014841;28;51047;-49
2023/03/15 10:35:54;;;;;;;;;3.67;3.00;;;;;-147.17;100.00;11929.16;5007290;28;51500;-51
2023/03/15 10:38:22;;;;;;;;;4.00;4.00;;;;;-147.17;100.00;13925.81;5032882;28;51089;-51
2023/03/15 10:40:56;;;;;;;;;7.33;6.33;;;;;-147.17;100.00;11679.66;5019183;28;51113;-49
2023/03/15 10:43:28;;;;;;;;;2.00;2.00;;;;;-147.17;100.00;14674.81;5022098;28;51044;-49
2023/03/15 10:45:59;;;;;;;;;2.67;1.67;;;;;-147.17;100.00;16173.25;5031836;28;51310;-49
2023/03/15 10:48:25;;;;;;;;;2.00;1.67;;;;;-147.17;100.00;13426.53;5033423;28;51184;-51
2023/03/15 10:50:51;;;;;;;;;4.67;4.00;;;;;-147.17;100.00;13176.94;5029515;28;51479;-47
2023/03/15 10:53:24;;;;;;;;;2.67;2.00;;;;;-147.17;100.00;16423.03;5031952;28;51454;-49
2023/03/15 10:55:59;;;;;;;;;2.00;1.00;;;;;-147.17;100.00;15423.94;5011099;28;51840;-49
2023/03/15 10:58:37;;;;;;;;;3.00;3.00;;;;;-147.17;100.00;13426.53;5032381;28;51099;-48
2023/03/15 11:01:06;;;;;;;;;3.00;3.00;;;;;-147.17;100.00;16173.25;5033563;28;51081;-49
2023/03/15 11:03:33;;;;;;;;;3.33;3.00;;;;;-147.17;100.00;16423.03;5033123;28;51030;-48
2023/03/15 11:05:59;;;;;;;;;1.00;1.00;;;;;-147.17;100.00;18921.88;5007123;28;54198;-48
2023/03/15 11:08:37;;;;;;;;;1.00;1.00;;;;;-147.17;100.00;18921.88;5031134;28;51385;-48
2023/03/15 11:11:04;;;;;;;;;4.00;1.67;;;;;-147.17;100.00;19421.84;5030673;28;51105;-49
2023/03/15 11:13:32;;;;;;;;;4.00;3.00;;;;;-147.17;100.00;18421.97;5032517;28;50919;-47
2023/03/15 11:16:04;;;;;;;;;4.00;4.00;;;;;-147.17;100.00;19171.84;5032413;28;51768;-49